Time;durP1;ratioP1;P1;durP2;ratioP2;P2;SDS_P1;SDS_P2;PMS_P1;PMS_P2;Temp;Humidity;BMP_temperature;BMP_pressure;BME280_temperature;BME280_humidity;BME280_pressure;Samples;Min_cycle;Max_cycle;Signal;HPM_P1;HPM_P2
2022/09/04 00:01:46;;;;;;;;;;;15.20;99.90;;;;;;5011672;28;19909;-69
2022/09/04 00:04:30;;;;;;;;;;;15.30;99.90;;;;;;5011749;28;20318;-71
2022/09/04 00:06:57;;;;;;;;;;;15.30;99.90;;;;;;5011666;28;19927;-71
2022/09/04 00:09:31;;;;;;;;;;;15.40;99.90;;;;;;5011336;28;19932;-71
2022/09/04 00:12:03;;;;;;;;;;;15.40;99.90;;;;;;5010750;28;20303;-69
2022/09/04 00:14:37;;;;;;;;;;;15.40;99.90;;;;;;5011646;28;19962;-69
2022/09/04 00:17:22;;;;;;;;;;;15.50;99.90;;;;;;5011583;28;20325;-69
2022/09/04 00:19:58;;;;;;;;;;;15.40;99.90;;;;;;5011332;28;19996;-69
2022/09/04 00:22:27;;;;;;;;;;;15.60;99.90;;;;;;5011461;28;20360;-69
2022/09/04 00:25:03;;;;;;;;;;;15.70;99.90;;;;;;5011418;28;19917;-69
2022/09/04 00:27:33;;;;;;;;;;;15.70;99.90;;;;;;5010602;28;20321;-69
2022/09/04 00:30:10;;;;;;;;;;;15.80;99.90;;;;;;5009854;28;19917;-69
2022/09/04 00:32:40;;;;;;;;;;;16.00;99.90;;;;;;5011385;28;19910;-71
2022/09/04 00:35:18;;;;;;;;;;;16.00;99.90;;;;;;5011172;28;20347;-67
2022/09/04 00:38:04;;;;;;;;;;;16.20;99.90;;;;;;5011013;28;20411;-69
2022/09/04 00:40:32;;;;;;;;;;;16.10;99.90;;;;;;5010825;28;20426;-69
2022/09/04 00:43:17;;;;;;;;;;;15.90;99.90;;;;;;5010578;28;19949;-69
2022/09/04 00:45:45;;;;;;;;;;;16.00;99.90;;;;;;5010871;28;20276;-68
2022/09/04 00:48:34;;;;;;;;;;;16.10;99.90;;;;;;5011010;28;19916;-68
2022/09/04 00:51:19;;;;;;;;;;;15.90;99.90;;;;;;5011045;28;19909;-69
2022/09/04 00:54:00;;;;;;;;;;;15.70;99.90;;;;;;5010794;28;20324;-69
2022/09/04 00:56:30;;;;;;;;;;;15.60;99.90;;;;;;5010390;28;19914;-69
2022/09/04 00:59:14;;;;;;;;;;;15.50;99.90;;;;;;5010953;28;20383;-69
2022/09/04 01:01:43;;;;;;;;;;;15.50;99.90;;;;;;5010676;28;19914;-70
2022/09/04 01:04:18;;;;;;;;;;;15.50;99.90;;;;;;5011060;28;20008;-71
2022/09/04 01:06:48;;;;;;;;;;;15.50;99.90;;;;;;5010799;28;19924;-69
2022/09/04 01:09:15;;;;;;;;;;;15.50;99.90;;;;;;5042167;28;20287;-70
2022/09/04 01:11:44;;;;;;;;;;;15.50;99.90;;;;;;5009961;28;20002;-69
2022/09/04 01:14:18;;;;;;;;;;;15.70;99.90;;;;;;5010719;28;20016;-68
2022/09/04 01:17:04;;;;;;;;;;;15.90;99.90;;;;;;5010942;28;19996;-69
2022/09/04 01:19:31;;;;;;;;;;;16.20;99.90;;;;;;5010772;28;19941;-69
2022/09/04 01:22:13;;;;;;;;;;;16.20;99.90;;;;;;5010512;28;19913;-69
2022/09/04 01:24:58;;;;;;;;;;;16.30;99.90;;;;;;5010731;28;19916;-71
2022/09/04 01:27:54;;;;;;;;;;;16.40;99.90;;;;;;5010074;28;19924;-71
2022/09/04 01:30:20;;;;;;;;;;;16.50;99.90;;;;;;4958111;28;19960;-68
2022/09/04 01:33:06;;;;;;;;;;;16.30;99.90;;;;;;5010610;28;19910;-68
2022/09/04 01:35:39;;;;;;;;;;;16.10;99.90;;;;;;5010535;28;19916;-68
2022/09/04 01:38:19;;;;;;;;;;;16.00;99.90;;;;;;5010540;28;19909;-69
2022/09/04 01:40:50;;;;;;;;;;;16.20;99.90;;;;;;5011571;28;19916;-68
2022/09/04 01:43:21;;;;;;;;;;;16.40;99.90;;;;;;5013918;28;20352;-67
2022/09/04 01:46:06;;;;;;;;;;;16.40;99.90;;;;;;5013601;28;19922;-68
2022/09/04 01:48:35;;;;;;;;;;;16.30;99.90;;;;;;5014053;28;19909;-69
2022/09/04 01:51:05;;;;;;;;;;;16.30;99.90;;;;;;5013892;28;19963;-71
2022/09/04 01:53:36;;;;;;;;;;;16.20;99.90;;;;;;5013591;28;19909;-68
2022/09/04 01:56:34;;;;;;;;;;;16.10;99.90;;;;;;5013224;28;20329;-69
2022/09/04 01:59:10;;;;;;;;;;;16.00;99.90;;;;;;4991330;28;20004;-70
2022/09/04 02:01:43;;;;;;;;;;;16.00;99.90;;;;;;5012427;28;19909;-68
2022/09/04 02:04:20;;;;;;;;;;;16.10;99.90;;;;;;5011625;28;19914;-67
2022/09/04 02:06:56;;;;;;;;;;;16.20;99.90;;;;;;5043549;28;19924;-69
2022/09/04 02:09:36;;;;;;;;;;;16.00;99.90;;;;;;5010680;28;19925;-70
2022/09/04 02:12:20;;;;;;;;;;;16.00;99.90;;;;;;5010714;28;19934;-69
2022/09/04 02:15:03;;;;;;;;;;;16.00;99.90;;;;;;5011170;28;19921;-70
2022/09/04 02:17:37;;;;;;;;;;;16.20;99.90;;;;;;5011244;28;20288;-69
2022/09/04 02:20:16;;;;;;;;;;;16.30;99.90;;;;;;5011528;28;19914;-69
2022/09/04 02:22:49;;;;;;;;;;;16.30;99.90;;;;;;5012119;28;20309;-69
2022/09/04 02:25:27;;;;;;;;;;;16.40;99.90;;;;;;5010690;28;20324;-67
2022/09/04 02:27:57;;;;;;;;;;;16.40;99.90;;;;;;5010809;28;19918;-68
2022/09/04 02:30:24;;;;;;;;;;;16.50;99.90;;;;;;5010861;28;19913;-67
2022/09/04 02:33:09;;;;;;;;;;;16.60;99.90;;;;;;5011130;28;19910;-67
2022/09/04 02:35:45;;;;;;;;;;;16.50;99.90;;;;;;5010468;28;20385;-69
2022/09/04 02:38:30;;;;;;;;;;;16.40;99.90;;;;;;5010921;28;20509;-69
2022/09/04 02:41:08;;;;;;;;;;;16.40;99.90;;;;;;5010320;28;19914;-67
2022/09/04 02:43:47;;;;;;;;;;;16.30;99.90;;;;;;5010943;28;19957;-67
2022/09/04 02:46:23;;;;;;;;;;;16.40;99.90;;;;;;5010751;28;19918;-69
2022/09/04 02:48:58;;;;;;;;;;;16.30;99.90;;;;;;5010461;28;19918;-68
2022/09/04 02:51:44;;;;;;;;;;;16.20;99.90;;;;;;5010259;28;19920;-68
2022/09/04 02:54:10;;;;;;;;;;;16.10;99.90;;;;;;5010844;28;19937;-68
2022/09/04 02:57:00;;;;;;;;;;;16.00;99.90;;;;;;5010086;28;19914;-70
2022/09/04 02:59:42;;;;;;;;;;;16.00;99.90;;;;;;4991270;28;20275;-68
2022/09/04 03:02:29;;;;;;;;;;;16.20;99.90;;;;;;5010507;28;19910;-68
2022/09/04 03:05:08;;;;;;;;;;;16.40;99.90;;;;;;4989281;28;20330;-67
2022/09/04 03:07:37;;;;;;;;;;;16.40;99.90;;;;;;5010147;28;20352;-68
2022/09/04 03:10:27;;;;;;;;;;;16.30;99.90;;;;;;5010004;28;19968;-70
2022/09/04 03:13:12;;;;;;;;;;;16.20;99.90;;;;;;4991128;28;19916;-68
2022/09/04 03:15:48;;;;;;;;;;;16.00;99.90;;;;;;5009774;28;19920;-69
2022/09/04 03:18:27;;;;;;;;;;;15.90;99.90;;;;;;5010399;28;19910;-68
2022/09/04 03:21:01;;;;;;;;;;;15.90;99.90;;;;;;5010245;28;19909;-67
2022/09/04 03:23:34;;;;;;;;;;;15.70;99.90;;;;;;5010379;28;19913;-67
2022/09/04 03:26:14;;;;;;;;;;;15.70;99.90;;;;;;5010402;28;19917;-67
2022/09/04 03:28:50;;;;;;;;;;;15.60;99.90;;;;;;5009667;28;20480;-67
2022/09/04 03:31:23;;;;;;;;;;;15.70;99.90;;;;;;5010036;28;19914;-67
2022/09/04 03:33:55;;;;;;;;;;;15.60;99.90;;;;;;5010111;28;19914;-70
2022/09/04 03:36:28;;;;;;;;;;;15.60;99.90;;;;;;5010192;28;20388;-68
2022/09/04 03:39:01;;;;;;;;;;;15.40;99.90;;;;;;5010082;28;19954;-68
2022/09/04 03:41:41;;;;;;;;;;;14.60;99.90;;;;;;5009738;28;19996;-67
2022/09/04 03:44:17;;;;;;;;;;;14.00;99.90;;;;;;5009978;28;19961;-68
2022/09/04 03:46:53;;;;;;;;;;;13.60;99.90;;;;;;5010001;28;19939;-68
2022/09/04 03:49:26;;;;;;;;;;;13.50;99.90;;;;;;5010053;28;20166;-68
2022/09/04 03:51:52;;;;;;;;;;;13.40;99.90;;;;;;5009771;28;19910;-67
2022/09/04 03:54:22;;;;;;;;;;;13.60;99.90;;;;;;5009377;28;20380;-68
2022/09/04 03:57:02;;;;;;;;;;;13.70;99.90;;;;;;5009755;28;20020;-68
2022/09/04 03:59:48;;;;;;;;;;;13.90;99.90;;;;;;5009736;28;19913;-68
2022/09/04 04:02:34;;;;;;;;;;;14.10;99.90;;;;;;5002470;28;19916;-67
2022/09/04 04:05:10;;;;;;;;;;;14.10;99.90;;;;;;5009649;28;19997;-69
2022/09/04 04:07:36;;;;;;;;;;;14.10;99.90;;;;;;5009057;28;19924;-67
2022/09/04 04:10:18;;;;;;;;;;;13.80;99.90;;;;;;5041077;27;19991;-67
2022/09/04 04:13:02;;;;;;;;;;;13.60;99.90;;;;;;5009587;28;20268;-67
2022/09/04 04:15:45;;;;;;;;;;;13.40;99.90;;;;;;5009440;28;19910;-68
2022/09/04 04:18:21;;;;;;;;;;;13.20;99.90;;;;;;5009502;28;19914;-68
2022/09/04 04:20:57;;;;;;;;;;;13.10;99.90;;;;;;5008554;28;20221;-68
2022/09/04 04:23:47;;;;;;;;;;;13.00;99.90;;;;;;5009449;28;20005;-69
2022/09/04 04:26:20;;;;;;;;;;;12.90;99.90;;;;;;4990032;28;20275;-68
2022/09/04 04:29:00;;;;;;;;;;;12.90;99.90;;;;;;5009103;28;19910;-69
2022/09/04 04:31:46;;;;;;;;;;;12.80;99.90;;;;;;5009252;28;20042;-68
2022/09/04 04:34:22;;;;;;;;;;;12.80;99.90;;;;;;5008843;28;19977;-69
2022/09/04 04:37:03;;;;;;;;;;;12.60;99.90;;;;;;5009276;28;19950;-68
2022/09/04 04:39:43;;;;;;;;;;;12.60;99.90;;;;;;5009363;28;19924;-68
2022/09/04 04:42:23;;;;;;;;;;;12.50;99.90;;;;;;5009045;28;19910;-68
2022/09/04 04:47:55;;;;;;;;;;;12.30;99.90;;;;;;5008633;28;19927;-68
2022/09/04 04:50:27;;;;;;;;;;;12.30;99.90;;;;;;5008948;28;20367;-67
2022/09/04 04:53:13;;;;;;;;;;;12.30;99.90;;;;;;5008832;28;20395;-68
2022/09/04 04:55:58;;;;;;;;;;;12.40;99.90;;;;;;5008808;28;19914;-68
2022/09/04 04:58:24;;;;;;;;;;;12.60;99.90;;;;;;5040280;28;19921;-67
2022/09/04 05:01:05;;;;;;;;;;;12.70;99.90;;;;;;5008383;28;20003;-67
2022/09/04 05:03:50;;;;;;;;;;;12.80;99.90;;;;;;5009011;28;20004;-68
2022/09/04 05:06:26;;;;;;;;;;;12.80;99.90;;;;;;5008691;28;19955;-67
2022/09/04 05:09:02;;;;;;;;;;;12.90;99.90;;;;;;5040131;28;19944;-67
2022/09/04 05:11:47;;;;;;;;;;;12.90;99.90;;;;;;5008681;28;19969;-68
2022/09/04 05:14:32;;;;;;;;;;;13.00;99.90;;;;;;5008062;28;19950;-69
2022/09/04 05:17:04;;;;;;;;;;;12.90;99.90;;;;;;5008792;28;19949;-69
2022/09/04 05:19:49;;;;;;;;;;;12.90;99.90;;;;;;5008561;28;19910;-68
2022/09/04 05:22:19;;;;;;;;;;;12.80;99.90;;;;;;5008575;28;19914;-68
2022/09/04 05:24:51;;;;;;;;;;;12.80;99.90;;;;;;5008518;28;19913;-69
2022/09/04 05:27:30;;;;;;;;;;;12.70;99.90;;;;;;5008051;28;19975;-69
2022/09/04 05:30:07;;;;;;;;;;;12.50;99.90;;;;;;5007419;28;19996;-69
2022/09/04 05:32:46;;;;;;;;;;;12.50;99.90;;;;;;5007902;28;20103;-70
2022/09/04 05:35:13;;;;;;;;;;;12.60;99.90;;;;;;5008476;28;20248;-69
2022/09/04 05:38:01;;;;;;;;;;;12.50;99.90;;;;;;5008095;28;20862;-69
2022/09/04 05:40:30;;;;;;;;;;;12.50;99.90;;;;;;5007747;28;19926;-71
2022/09/04 05:43:03;;;;;;;;;;;12.50;99.90;;;;;;5008072;28;19910;-69
2022/09/04 05:45:32;;;;;;;;;;;12.50;99.90;;;;;;5008253;28;19917;-69
2022/09/04 05:48:15;;;;;;;;;;;12.50;99.90;;;;;;5009438;28;19992;-69
2022/09/04 05:50:42;;;;;;;;;;;12.50;99.90;;;;;;5008174;28;19921;-68
2022/09/04 05:53:19;;;;;;;;;;;12.50;99.90;;;;;;5007824;28;19913;-68
2022/09/04 05:55:53;;;;;;;;;;;12.60;99.90;;;;;;5008212;28;19921;-71
2022/09/04 05:58:25;;;;;;;;;;;12.60;99.90;;;;;;5008023;28;19981;-68
2022/09/04 06:01:12;;;;;;;;;;;12.60;99.90;;;;;;5007503;28;20391;-70
2022/09/04 06:03:57;;;;;;;;;;;12.80;99.90;;;;;;5007687;28;19920;-69
2022/09/04 06:06:24;;;;;;;;;;;12.80;99.90;;;;;;5007519;28;19972;-71
2022/09/04 06:08:51;;;;;;;;;;;12.90;99.90;;;;;;5007793;28;19913;-68
2022/09/04 06:11:47;;;;;;;;;;;13.00;99.90;;;;;;5009456;28;20338;-70
2022/09/04 06:14:32;;;;;;;;;;;12.90;99.90;;;;;;4997217;28;19954;-71
2022/09/04 06:16:58;;;;;;;;;;;12.90;99.90;;;;;;5009316;28;19914;-70
2022/09/04 06:19:43;;;;;;;;;;;12.90;99.90;;;;;;5009809;28;19913;-69
2022/09/04 06:22:19;;;;;;;;;;;12.90;99.90;;;;;;5009814;28;20408;-68
2022/09/04 06:24:52;;;;;;;;;;;13.00;99.90;;;;;;5009939;28;20001;-68
2022/09/04 06:27:22;;;;;;;;;;;13.00;99.90;;;;;;5011909;28;19921;-70
2022/09/04 06:29:52;;;;;;;;;;;12.90;99.90;;;;;;5012654;28;19917;-69
2022/09/04 06:32:36;;;;;;;;;;;13.00;99.90;;;;;;5012481;28;19920;-67
2022/09/04 06:35:18;;;;;;;;;;;13.00;99.90;;;;;;5013022;28;19914;-69
2022/09/04 06:37:57;;;;;;;;;;;13.10;99.90;;;;;;5012837;28;19992;-69
2022/09/04 06:40:42;;;;;;;;;;;13.20;99.90;;;;;;5012905;28;19910;-68
2022/09/04 06:43:11;;;;;;;;;;;13.50;99.90;;;;;;5012689;28;20012;-68
2022/09/04 06:45:44;;;;;;;;;;;13.90;99.90;;;;;;5012238;28;19964;-67
2022/09/04 06:48:15;;;;;;;;;;;14.00;99.90;;;;;;5012851;28;20318;-68
2022/09/04 06:50:51;;;;;;;;;;;14.10;99.90;;;;;;5012800;28;19913;-68
2022/09/04 06:53:28;;;;;;;;;;;14.20;99.90;;;;;;5013198;28;19913;-68
2022/09/04 06:56:06;;;;;;;;;;;14.20;99.90;;;;;;5012466;28;19953;-68
2022/09/04 06:58:44;;;;;;;;;;;14.20;99.90;;;;;;5012561;28;19909;-69
2022/09/04 07:01:29;;;;;;;;;;;14.20;99.90;;;;;;5012192;28;19910;-68
2022/09/04 07:04:04;;;;;;;;;;;14.20;99.90;;;;;;5012281;28;19917;-68
2022/09/04 07:06:43;;;;;;;;;;;14.20;99.90;;;;;;5012431;28;19956;-69
2022/09/04 07:09:16;;;;;;;;;;;14.30;99.90;;;;;;5043947;28;19918;-71
2022/09/04 07:11:49;;;;;;;;;;;14.20;99.90;;;;;;5012703;28;19909;-70
2022/09/04 07:14:34;;;;;;;;;;;14.10;99.90;;;;;;5012348;28;19910;-69
2022/09/04 07:17:04;;;;;;;;;;;13.90;99.90;;;;;;5012238;28;19910;-69
2022/09/04 07:19:31;;;;;;;;;;;13.80;99.90;;;;;;5012395;28;19910;-68
2022/09/04 07:22:02;;;;;;;;;;;13.80;99.90;;;;;;5012159;28;20383;-69
2022/09/04 07:24:32;;;;;;;;;;;13.70;99.90;;;;;;5012325;28;19916;-69
2022/09/04 07:27:08;;;;;;;;;;;13.70;99.90;;;;;;5012207;28;19922;-69
2022/09/04 07:29:41;;;;;;;;;;;13.60;99.90;;;;;;5011452;28;20000;-70
2022/09/04 07:32:11;;;;;;;;;;;13.60;99.90;;;;;;5012200;28;19913;-69
2022/09/04 07:34:45;;;;;;;;;;;13.60;99.90;;;;;;5012187;28;19941;-69
2022/09/04 07:37:25;;;;;;;;;;;13.60;99.90;;;;;;5011681;28;20352;-69
2022/09/04 07:40:11;;;;;;;;;;;13.60;99.90;;;;;;5011346;28;19916;-69
2022/09/04 07:42:41;;;;;;;;;;;13.50;99.90;;;;;;5012159;28;19973;-69
2022/09/04 07:45:22;;;;;;;;;;;13.50;99.90;;;;;;5012129;28;20391;-69
2022/09/04 07:47:57;;;;;;;;;;;13.50;99.90;;;;;;5010287;28;20430;-70
2022/09/04 07:50:28;;;;;;;;;;;13.50;99.90;;;;;;5010036;28;19917;-70
2022/09/04 07:53:07;;;;;;;;;;;13.40;99.90;;;;;;5009888;28;20020;-69
2022/09/04 07:55:40;;;;;;;;;;;13.40;99.90;;;;;;5010231;28;20379;-69
2022/09/04 07:58:18;;;;;;;;;;;13.30;99.90;;;;;;5009577;28;19909;-69
2022/09/04 08:01:03;;;;;;;;;;;13.40;99.90;;;;;;5009715;28;20280;-69
2022/09/04 08:03:36;;;;;;;;;;;13.30;99.90;;;;;;5009611;28;20292;-69
2022/09/04 08:06:23;;;;;;;;;;;13.30;99.90;;;;;;5041242;28;20007;-70
2022/09/04 08:08:49;;;;;;;;;;;13.30;99.90;;;;;;5009260;28;20326;-69
2022/09/04 08:11:36;;;;;;;;;;;13.30;99.90;;;;;;5009710;28;20272;-69
2022/09/04 08:14:10;;;;;;;;;;;13.30;99.90;;;;;;5009227;28;19924;-68
2022/09/04 08:16:55;;;;;;;;;;;13.30;99.90;;;;;;5009365;28;19923;-68
2022/09/04 08:19:30;;;;;;;;;;;13.40;99.90;;;;;;5009446;28;20356;-68
2022/09/04 08:21:58;;;;;;;;;;;13.30;99.90;;;;;;5009245;28;19909;-69
2022/09/04 08:24:28;;;;;;;;;;;13.10;99.90;;;;;;5009570;28;19917;-70
2022/09/04 08:27:13;;;;;;;;;;;12.80;99.90;;;;;;5008948;28;20300;-70
2022/09/04 08:29:58;;;;;;;;;;;12.60;99.90;;;;;;5009151;28;19962;-69
2022/09/04 08:32:40;;;;;;;;;;;12.50;99.90;;;;;;5009430;28;19913;-70
2022/09/04 08:35:25;;;;;;;;;;;12.40;99.90;;;;;;5009386;28;19909;-69
2022/09/04 08:37:54;;;;;;;;;;;12.40;99.90;;;;;;5009034;28;19910;-70
2022/09/04 08:40:40;;;;;;;;;;;12.30;99.90;;;;;;5009014;28;20232;-70
2022/09/04 08:43:09;;;;;;;;;;;12.30;99.90;;;;;;5009057;28;19915;-69
2022/09/04 08:45:36;;;;;;;;;;;12.20;99.90;;;;;;5008954;28;19914;-69
2022/09/04 08:48:18;;;;;;;;;;;12.20;99.90;;;;;;5009060;28;20450;-69
2022/09/04 08:50:44;;;;;;;;;;;12.10;99.90;;;;;;5008127;28;19910;-68
2022/09/04 08:53:43;;;;;;;;;;;12.10;99.90;;;;;;5008763;28;19910;-69
2022/09/04 08:56:36;;;;;;;;;;;12.10;99.90;;;;;;4975810;28;19909;-70
2022/09/04 08:59:11;;;;;;;;;;;12.10;99.90;;;;;;4985739;28;19913;-69
2022/09/04 09:01:56;;;;;;;;;;;12.10;99.90;;;;;;5008715;28;20388;-69
2022/09/04 09:04:27;;;;;;;;;;;12.20;99.90;;;;;;5009314;28;20291;-69
2022/09/04 09:07:12;;;;;;;;;;;12.20;99.90;;;;;;5010772;28;19929;-69
2022/09/04 09:09:45;;;;;;;;;;;12.20;99.90;;;;;;5010443;28;19921;-68
2022/09/04 09:12:30;;;;;;;;;;;12.10;99.90;;;;;;5010738;28;19944;-70
2022/09/04 09:14:56;;;;;;;;;;;12.30;99.90;;;;;;5010683;28;19909;-69
2022/09/04 09:17:23;;;;;;;;;;;12.30;99.90;;;;;;5010320;28;20017;-68
2022/09/04 09:20:03;;;;;;;;;;;12.30;99.90;;;;;;5010365;28;19917;-69
2022/09/04 09:22:39;;;;;;;;;;;12.30;99.90;;;;;;5042170;28;19920;-70
2022/09/04 09:25:15;;;;;;;;;;;12.30;99.90;;;;;;5010107;28;19910;-67
2022/09/04 09:28:05;;;;;;;;;;;12.30;99.90;;;;;;5010199;28;19918;-68
2022/09/04 09:30:38;;;;;;;;;;;12.30;99.90;;;;;;5010204;28;19916;-69
2022/09/04 09:33:08;;;;;;;;;;;12.30;99.90;;;;;;5010168;28;19909;-68
2022/09/04 09:35:51;;;;;;;;;;;12.30;99.90;;;;;;5010343;28;19909;-69
2022/09/04 09:38:50;;;;;;;;;;;12.30;99.90;;;;;;5010575;28;19909;-70
2022/09/04 09:41:27;;;;;;;;;;;12.20;99.90;;;;;;4987399;28;19922;-68
2022/09/04 09:44:17;;;;;;;;;;;12.20;99.90;;;;;;5010373;28;20285;-69
2022/09/04 09:46:45;;;;;;;;;;;12.20;99.90;;;;;;4991175;28;19924;-69
2022/09/04 09:49:26;;;;;;;;;;;12.20;99.90;;;;;;5010330;28;19971;-69
2022/09/04 09:51:59;;;;;;;;;;;12.20;99.90;;;;;;5009769;28;19909;-69
2022/09/04 09:54:28;;;;;;;;;;;12.30;99.90;;;;;;5009706;28;19917;-69
2022/09/04 09:56:58;;;;;;;;;;;12.30;99.90;;;;;;5009809;28;19997;-68
2022/09/04 09:59:43;;;;;;;;;;;12.30;99.90;;;;;;5010204;28;20025;-68
2022/09/04 10:02:15;;;;;;;;;;;12.50;99.90;;;;;;5012238;28;20000;-68
2022/09/04 10:04:59;;;;;;;;;;;12.60;99.90;;;;;;5013597;28;19920;-69
2022/09/04 10:07:44;;;;;;;;;;;12.80;99.90;;;;;;5013648;28;19933;-69
2022/09/04 10:10:37;;;;;;;;;;;12.80;99.90;;;;;;5044489;28;19967;-68
2022/09/04 10:13:28;;;;;;;;;;;12.80;99.90;;;;;;5013351;28;19913;-69
2022/09/04 10:15:55;;;;;;;;;;;12.80;99.90;;;;;;5013096;28;19921;-68
2022/09/04 10:18:22;;;;;;;;;;;12.70;99.90;;;;;;5013222;28;20326;-69
2022/09/04 10:21:12;;;;;;;;;;;12.70;99.90;;;;;;5013306;28;19916;-69
2022/09/04 10:23:41;;;;;;;;;;;12.60;99.90;;;;;;5012604;28;19914;-68
2022/09/04 10:26:34;;;;;;;;;;;12.60;99.90;;;;;;5013033;28;19922;-68
2022/09/04 10:29:08;;;;;;;;;;;12.60;99.90;;;;;;5013206;28;19945;-69
2022/09/04 10:31:41;;;;;;;;;;;12.60;99.90;;;;;;5013049;28;19910;-68
2022/09/04 10:34:22;;;;;;;;;;;12.60;99.90;;;;;;5013116;28;19910;-69
2022/09/04 10:37:07;;;;;;;;;;;12.60;99.90;;;;;;5013076;28;20264;-70
2022/09/04 10:42:45;;;;;;;;;;;12.60;99.90;;;;;;5001685;28;19921;-68
2022/09/04 10:45:33;;;;;;;;;;;12.60;99.90;;;;;;5013258;28;20368;-69
2022/09/04 10:48:00;;;;;;;;;;;12.60;99.90;;;;;;5013319;28;19965;-69
2022/09/04 10:50:30;;;;;;;;;;;12.50;99.90;;;;;;5013111;28;19909;-69
2022/09/04 10:53:10;;;;;;;;;;;12.50;99.90;;;;;;5014981;28;19909;-68
2022/09/04 10:55:49;;;;;;;;;;;12.50;99.90;;;;;;5012450;28;19910;-68
2022/09/04 10:58:18;;;;;;;;;;;12.40;99.90;;;;;;5012875;28;20343;-68
2022/09/04 11:00:49;;;;;;;;;;;12.50;99.90;;;;;;5013061;28;19914;-69
2022/09/04 11:03:27;;;;;;;;;;;12.40;99.90;;;;;;5012922;28;19909;-69
2022/09/04 11:06:25;;;;;;;;;;;12.40;99.90;;;;;;5012243;28;19924;-67
2022/09/04 11:09:17;;;;;;;;;;;12.40;99.90;;;;;;5012117;28;19922;-68
2022/09/04 11:11:49;;;;;;;;;;;12.40;99.90;;;;;;4996715;28;19916;-68
2022/09/04 11:14:48;;;;;;;;;;;12.40;99.90;;;;;;5011661;28;19944;-68
2022/09/04 11:17:15;;;;;;;;;;;12.30;99.90;;;;;;4990191;28;20257;-68
2022/09/04 11:20:00;;;;;;;;;;;12.30;99.90;;;;;;5012461;28;19955;-68
2022/09/04 11:22:45;;;;;;;;;;;12.30;99.90;;;;;;5013191;28;19910;-68
2022/09/04 11:25:12;;;;;;;;;;;12.20;99.90;;;;;;5011775;28;20360;-68
2022/09/04 11:27:38;;;;;;;;;;;12.30;99.90;;;;;;5011975;28;19944;-68
2022/09/04 11:30:16;;;;;;;;;;;12.30;99.90;;;;;;5012285;28;19917;-68
2022/09/04 11:33:01;;;;;;;;;;;12.30;99.90;;;;;;5011423;28;19990;-68
2022/09/04 11:35:40;;;;;;;;;;;12.30;99.90;;;;;;5012395;28;19949;-68
2022/09/04 11:38:07;;;;;;;;;;;12.20;99.90;;;;;;5011832;28;19909;-69
2022/09/04 11:40:37;;;;;;;;;;;12.20;99.90;;;;;;5012399;28;20051;-68
2022/09/04 11:43:22;;;;;;;;;;;12.20;99.90;;;;;;5011977;28;19932;-68
2022/09/04 11:45:52;;;;;;;;;;;12.10;99.90;;;;;;5011910;28;19914;-68
2022/09/04 11:48:31;;;;;;;;;;;12.10;99.90;;;;;;5012254;28;20291;-69
2022/09/04 11:51:00;;;;;;;;;;;12.10;99.90;;;;;;5012696;28;19910;-69
2022/09/04 11:53:36;;;;;;;;;;;12.00;99.90;;;;;;5011373;28;19948;-69
2022/09/04 11:56:15;;;;;;;;;;;12.00;99.90;;;;;;5011915;28;19917;-69
2022/09/04 11:58:41;;;;;;;;;;;11.90;99.90;;;;;;5043601;28;20280;-69
2022/09/04 12:01:29;;;;;;;;;;;11.90;99.90;;;;;;5011908;28;19929;-68
2022/09/04 12:04:19;;;;;;;;;;;11.80;99.90;;;;;;5011334;28;19941;-68
2022/09/04 12:06:53;;;;;;;;;;;11.80;99.90;;;;;;5011583;28;19917;-68
2022/09/04 12:09:35;;;;;;;;;;;11.80;99.90;;;;;;5011467;28;19943;-68
2022/09/04 12:12:07;;;;;;;;;;;11.70;99.90;;;;;;5011567;28;19916;-68
2022/09/04 12:14:45;;;;;;;;;;;11.70;99.90;;;;;;5011854;28;19910;-70
2022/09/04 12:17:33;;;;;;;;;;;11.70;99.90;;;;;;5011713;28;19949;-69
2022/09/04 12:20:09;;;;;;;;;;;11.70;99.90;;;;;;5011553;28;19910;-70
2022/09/04 12:22:44;;;;;;;;;;;11.60;99.90;;;;;;5011596;28;19909;-68
2022/09/04 12:25:14;;;;;;;;;;;11.60;99.90;;;;;;5011475;28;19916;-70
2022/09/04 12:27:41;;;;;;;;;;;11.60;99.90;;;;;;5011030;28;19925;-69
2022/09/04 12:30:11;;;;;;;;;;;11.50;99.90;;;;;;5011475;28;19910;-69
2022/09/04 12:32:50;;;;;;;;;;;11.50;99.90;;;;;;5011428;28;19955;-70
2022/09/04 12:35:20;;;;;;;;;;;11.50;99.90;;;;;;5011470;28;19909;-70
2022/09/04 12:38:02;;;;;;;;;;;11.60;99.90;;;;;;5011090;28;19909;-69
2022/09/04 12:40:30;;;;;;;;;;;11.50;99.90;;;;;;5011432;28;19936;-70
2022/09/04 12:42:57;;;;;;;;;;;11.50;99.90;;;;;;5011297;28;19910;-70
2022/09/04 12:45:35;;;;;;;;;;;11.50;99.90;;;;;;5011231;28;19910;-71
2022/09/04 12:48:14;;;;;;;;;;;11.50;99.90;;;;;;5011329;28;20432;-68
2022/09/04 12:50:58;;;;;;;;;;;11.50;99.90;;;;;;5011173;28;19913;-71
2022/09/04 12:53:44;;;;;;;;;;;11.50;99.90;;;;;;5011183;28;19953;-70
2022/09/04 12:56:10;;;;;;;;;;;11.50;99.90;;;;;;5010927;28;19910;-72
2022/09/04 12:58:37;;;;;;;;;;;11.50;99.90;;;;;;5011097;28;19955;-71
2022/09/04 13:01:14;;;;;;;;;;;11.40;99.90;;;;;;5011076;28;19963;-72
2022/09/04 13:03:40;;;;;;;;;;;11.40;99.90;;;;;;5010695;28;19954;-69
2022/09/04 13:06:19;;;;;;;;;;;11.50;99.90;;;;;;5010971;28;19925;-69
2022/09/04 13:09:06;;;;;;;;;;;11.40;99.90;;;;;;5010696;28;19918;-69
2022/09/04 13:11:36;;;;;;;;;;;11.40;99.90;;;;;;5042315;28;19913;-70
2022/09/04 13:14:12;;;;;;;;;;;11.40;99.90;;;;;;5010837;28;19913;-70
2022/09/04 13:16:42;;;;;;;;;;;11.40;99.90;;;;;;5010705;28;19955;-70
2022/09/04 13:19:10;;;;;;;;;;;11.40;99.90;;;;;;5010784;28;20000;-69
2022/09/04 13:21:54;;;;;;;;;;;11.40;99.90;;;;;;5010626;28;19913;-69
2022/09/04 13:24:34;;;;;;;;;;;11.40;99.90;;;;;;5010805;28;19917;-70
2022/09/04 13:27:14;;;;;;;;;;;11.30;99.90;;;;;;5010615;28;19917;-70
2022/09/04 13:29:53;;;;;;;;;;;11.30;99.90;;;;;;5010559;28;19909;-69
2022/09/04 13:32:29;;;;;;;;;;;11.30;99.90;;;;;;5010662;28;20297;-70
2022/09/04 13:34:59;;;;;;;;;;;11.20;99.90;;;;;;5010739;28;19944;-70
2022/09/04 13:37:34;;;;;;;;;;;11.30;99.90;;;;;;5013184;28;19913;-69
2022/09/04 13:40:07;;;;;;;;;;;11.30;99.90;;;;;;5014099;28;20292;-70
2022/09/04 13:42:34;;;;;;;;;;;11.30;99.90;;;;;;5013913;28;20371;-69
2022/09/04 13:45:04;;;;;;;;;;;11.30;99.90;;;;;;5014042;28;19945;-69
2022/09/04 13:47:42;;;;;;;;;;;11.30;99.90;;;;;;5013875;28;19917;-70
2022/09/04 13:50:20;;;;;;;;;;;11.30;99.90;;;;;;5013980;28;20371;-70
2022/09/04 13:52:51;;;;;;;;;;;11.30;99.90;;;;;;5013960;28;19913;-69
2022/09/04 13:55:26;;;;;;;;;;;11.30;99.90;;;;;;5013692;28;20321;-69
2022/09/04 13:57:56;;;;;;;;;;;11.40;99.90;;;;;;5013695;28;20379;-69
2022/09/04 14:00:23;;;;;;;;;;;11.30;99.90;;;;;;5013655;28;19941;-69
2022/09/04 14:02:56;;;;;;;;;;;11.30;99.90;;;;;;5013800;28;19963;-69
2022/09/04 14:05:24;;;;;;;;;;;11.30;99.90;;;;;;5013716;28;19917;-71
2022/09/04 14:07:57;;;;;;;;;;;11.30;99.90;;;;;;5013504;28;19921;-71
2022/09/04 14:10:33;;;;;;;;;;;11.30;99.90;;;;;;5013564;28;19928;-70
2022/09/04 14:13:03;;;;;;;;;;;11.30;99.90;;;;;;5013568;28;19910;-71
2022/09/04 14:16:02;;;;;;;;;;;11.30;99.90;;;;;;5013574;28;19910;-69
2022/09/04 14:18:38;;;;;;;;;;;11.30;99.90;;;;;;4990851;28;19913;-71
2022/09/04 14:21:17;;;;;;;;;;;11.30;99.90;;;;;;5013528;28;19910;-70
2022/09/04 14:24:16;;;;;;;;;;;11.30;99.90;;;;;;5013225;28;19935;-71
2022/09/04 14:26:55;;;;;;;;;;;11.30;99.90;;;;;;4991017;28;19917;-70
2022/09/04 14:29:28;;;;;;;;;;;11.30;99.90;;;;;;5013233;28;19956;-69
2022/09/04 14:32:09;;;;;;;;;;;11.20;99.90;;;;;;5013100;28;19917;-69
2022/09/04 14:35:01;;;;;;;;;;;11.20;99.90;;;;;;5013224;28;19982;-69
2022/09/04 14:37:47;;;;;;;;;;;11.20;99.90;;;;;;5013432;28;19935;-70
2022/09/04 14:40:24;;;;;;;;;;;11.20;99.90;;;;;;5013087;28;19953;-69
2022/09/04 14:42:57;;;;;;;;;;;11.20;99.90;;;;;;5013194;28;19909;-69
2022/09/04 14:45:28;;;;;;;;;;;11.20;99.90;;;;;;5013033;28;19909;-71
2022/09/04 14:47:58;;;;;;;;;;;11.10;99.90;;;;;;5011433;28;20422;-71
2022/09/04 14:50:29;;;;;;;;;;;11.10;99.90;;;;;;5012928;28;19917;-70
2022/09/04 14:53:04;;;;;;;;;;;11.10;99.90;;;;;;5013104;28;19909;-70
2022/09/04 14:55:32;;;;;;;;;;;11.00;99.90;;;;;;5012649;28;19909;-69
2022/09/04 14:58:04;;;;;;;;;;;11.00;99.90;;;;;;5012516;28;20378;-69
2022/09/04 15:00:33;;;;;;;;;;;11.00;99.90;;;;;;5012877;28;19917;-70
2022/09/04 15:03:06;;;;;;;;;;;10.90;99.90;;;;;;5012861;28;19910;-70
2022/09/04 15:05:36;;;;;;;;;;;10.90;99.90;;;;;;5012828;28;19963;-69
2022/09/04 15:08:04;;;;;;;;;;;10.90;99.90;;;;;;5012750;28;19921;-69
2022/09/04 15:10:34;;;;;;;;;;;10.90;99.90;;;;;;5012488;28;19921;-69
2022/09/04 15:13:01;;;;;;;;;;;10.90;99.90;;;;;;5012718;28;19909;-70
2022/09/04 15:15:36;;;;;;;;;;;10.90;99.90;;;;;;5012587;28;20039;-69
2022/09/04 15:18:14;;;;;;;;;;;10.90;99.90;;;;;;5012594;28;20021;-70